sensor_id;sensor_type;location;lat;lon;timestamp;pressure;altitude;pressure_sealevel;temperature;humidity
77869;BME280;67231;59.144;37.934;2023-04-15T00:00:22;101973.94;;;-1.51;37.25
77869;BME280;67231;59.144;37.934;2023-04-15T00:02:49;101983.41;;;-1.48;36.72
77869;BME280;67231;59.144;37.934;2023-04-15T00:05:15;101990.31;;;-1.45;37.01
77869;BME280;67231;59.144;37.934;2023-04-15T00:07:41;101988.50;;;-1.40;36.79
77869;BME280;67231;59.144;37.934;2023-04-15T00:10:07;101991.06;;;-1.37;36.69
77869;BME280;67231;59.144;37.934;2023-04-15T00:12:34;101992.78;;;-1.36;36.54
77869;BME280;67231;59.144;37.934;2023-04-15T00:15:00;101998.84;;;-1.36;36.70
77869;BME280;67231;59.144;37.934;2023-04-15T00:17:29;101992.84;;;-1.39;36.72
77869;BME280;67231;59.144;37.934;2023-04-15T00:19:55;102000.66;;;-1.39;36.48
77869;BME280;67231;59.144;37.934;2023-04-15T00:22:22;101998.03;;;-1.39;36.76
77869;BME280;67231;59.144;37.934;2023-04-15T00:24:48;102006.72;;;-1.40;36.66
77869;BME280;67231;59.144;37.934;2023-04-15T00:27:49;102014.56;;;-1.42;36.76
77869;BME280;67231;59.144;37.934;2023-04-15T00:30:15;102017.16;;;-1.42;36.68
77869;BME280;67231;59.144;37.934;2023-04-15T00:32:42;102008.56;;;-1.47;36.76
77869;BME280;67231;59.144;37.934;2023-04-15T00:35:08;102007.75;;;-1.49;36.67
77869;BME280;67231;59.144;37.934;2023-04-15T00:37:34;102010.34;;;-1.48;36.95
77869;BME280;67231;59.144;37.934;2023-04-15T00:40:01;102016.38;;;-1.47;36.95
77869;BME280;67231;59.144;37.934;2023-04-15T00:42:31;102018.97;;;-1.45;36.77
77869;BME280;67231;59.144;37.934;2023-04-15T00:44:57;102018.97;;;-1.45;36.38
77869;BME280;67231;59.144;37.934;2023-04-15T00:47:28;102009.41;;;-1.45;36.57
77869;BME280;67231;59.144;37.934;2023-04-15T00:49:55;102025.03;;;-1.47;36.94
77869;BME280;67231;59.144;37.934;2023-04-15T00:52:21;102019.00;;;-1.47;36.99
77869;BME280;67231;59.144;37.934;2023-04-15T00:54:47;102019.00;;;-1.49;37.26
77869;BME280;67231;59.144;37.934;2023-04-15T00:57:14;102033.81;;;-1.51;36.81
77869;BME280;67231;59.144;37.934;2023-04-15T00:59:40;102029.44;;;-1.50;37.06
77869;BME280;67231;59.144;37.934;2023-04-15T01:02:06;102032.06;;;-1.50;37.17
77869;BME280;67231;59.144;37.934;2023-04-15T01:04:33;102029.47;;;-1.52;37.20
77869;BME280;67231;59.144;37.934;2023-04-15T01:06:59;102036.41;;;-1.51;37.18
77869;BME280;67231;59.144;37.934;2023-04-15T01:09:26;102043.31;;;-1.50;37.15
77869;BME280;67231;59.144;37.934;2023-04-15T01:11:52;102036.41;;;-1.51;37.22
77869;BME280;67231;59.144;37.934;2023-04-15T01:14:18;102042.50;;;-1.52;37.26
77869;BME280;67231;59.144;37.934;2023-04-15T01:16:45;102039.06;;;-1.54;37.18
77869;BME280;67231;59.144;37.934;2023-04-15T01:19:13;102042.53;;;-1.55;37.23
77869;BME280;67231;59.144;37.934;2023-04-15T01:21:42;102041.72;;;-1.57;37.29
77869;BME280;67231;59.144;37.934;2023-04-15T01:24:09;102045.22;;;-1.59;37.43
77869;BME280;67231;59.144;37.934;2023-04-15T01:26:37;102046.13;;;-1.60;37.55
77869;BME280;67231;59.144;37.934;2023-04-15T01:29:06;102047.00;;;-1.63;37.27
77869;BME280;67231;59.144;37.934;2023-04-15T01:31:33;102057.47;;;-1.66;37.50
77869;BME280;67231;59.144;37.934;2023-04-15T01:33:59;102050.53;;;-1.67;37.85
77869;BME280;67231;59.144;37.934;2023-04-15T01:36:45;102056.66;;;-1.70;37.80
77869;BME280;67231;59.144;37.934;2023-04-15T01:39:13;102060.16;;;-1.72;37.52
77869;BME280;67231;59.144;37.934;2023-04-15T01:41:40;102056.72;;;-1.74;37.71
77869;BME280;67231;59.144;37.934;2023-04-15T01:44:08;102063.78;;;-1.81;38.25
77869;BME280;67231;59.144;37.934;2023-04-15T01:46:36;102062.88;;;-1.81;37.88
77869;BME280;67231;59.144;37.934;2023-04-15T01:49:03;102057.69;;;-1.83;37.70
77869;BME280;67231;59.144;37.934;2023-04-15T01:51:32;102061.19;;;-1.83;37.96
77869;BME280;67231;59.144;37.934;2023-04-15T01:54:00;102069.88;;;-1.84;37.99
77869;BME280;67231;59.144;37.934;2023-04-15T01:56:27;102069.88;;;-1.84;38.10
77869;BME280;67231;59.144;37.934;2023-04-15T01:58:55;102078.50;;;-1.81;38.16
77869;BME280;67231;59.144;37.934;2023-04-15T02:01:23;102079.38;;;-1.81;38.07
77869;BME280;67231;59.144;37.934;2023-04-15T02:03:51;102079.38;;;-1.81;38.11
77869;BME280;67231;59.144;37.934;2023-04-15T02:06:18;102081.97;;;-1.81;38.21
77869;BME280;67231;59.144;37.934;2023-04-15T02:08:45;102075.03;;;-1.80;38.33
77869;BME280;67231;59.144;37.934;2023-04-15T02:11:13;102068.09;;;-1.81;37.83
77869;BME280;67231;59.144;37.934;2023-04-15T02:13:40;102074.19;;;-1.81;38.49
77869;BME280;67231;59.144;37.934;2023-04-15T02:16:15;102081.09;;;-1.81;38.27
77869;BME280;67231;59.144;37.934;2023-04-15T02:18:45;102068.94;;;-1.78;38.63
77869;BME280;67231;59.144;37.934;2023-04-15T02:21:13;102069.81;;;-1.80;38.42
77869;BME280;67231;59.144;37.934;2023-04-15T02:23:40;102078.47;;;-1.78;38.03
77869;BME280;67231;59.144;37.934;2023-04-15T02:26:08;102084.53;;;-1.76;38.52
77869;BME280;67231;59.144;37.934;2023-04-15T02:28:35;102083.63;;;-1.75;38.45
77869;BME280;67231;59.144;37.934;2023-04-15T02:31:06;102087.09;;;-1.73;38.72
77869;BME280;67231;59.144;37.934;2023-04-15T02:33:34;102087.00;;;-1.70;38.56
77869;BME280;67231;59.144;37.934;2023-04-15T02:36:04;102084.38;;;-1.67;38.16
77869;BME280;67231;59.144;37.934;2023-04-15T02:38:32;102090.44;;;-1.65;38.15
77869;BME280;67231;59.144;37.934;2023-04-15T02:40:59;102094.72;;;-1.62;38.22
77869;BME280;67231;59.144;37.934;2023-04-15T02:43:28;102092.97;;;-1.60;38.05
77869;BME280;67231;59.144;37.934;2023-04-15T02:45:56;102095.50;;;-1.57;38.07
77869;BME280;67231;59.144;37.934;2023-04-15T02:48:23;102092.88;;;-1.56;38.22
77869;BME280;67231;59.144;37.934;2023-04-15T02:50:50;102090.22;;;-1.53;38.14
77869;BME280;67231;59.144;37.934;2023-04-15T02:53:18;102101.47;;;-1.48;38.32
77869;BME280;67231;59.144;37.934;2023-04-15T02:55:46;102097.06;;;-1.45;38.22
77869;BME280;67231;59.144;37.934;2023-04-15T02:58:13;102110.88;;;-1.40;37.99
77869;BME280;67231;59.144;37.934;2023-04-15T03:00:40;102109.00;;;-1.32;38.26
77869;BME280;67231;59.144;37.934;2023-04-15T03:03:08;102115.09;;;-1.32;38.02
77869;BME280;67231;59.144;37.934;2023-04-15T03:05:36;102104.59;;;-1.27;38.08
77869;BME280;67231;59.144;37.934;2023-04-15T03:08:05;102120.13;;;-1.22;38.05
77869;BME280;67231;59.144;37.934;2023-04-15T03:10:32;102121.88;;;-1.21;38.32
77869;BME280;67231;59.144;37.934;2023-04-15T03:13:02;102115.81;;;-1.22;38.08
77869;BME280;67231;59.144;37.934;2023-04-15T03:15:29;102119.25;;;-1.20;38.16
77869;BME280;67231;59.144;37.934;2023-04-15T03:17:57;102117.47;;;-1.18;37.92
77869;BME280;67231;59.144;37.934;2023-04-15T03:20:24;102122.56;;;-1.10;37.85
77869;BME280;67231;59.144;37.934;2023-04-15T03:22:52;102124.19;;;-1.04;37.78
77869;BME280;67231;59.144;37.934;2023-04-15T03:25:21;102127.59;;;-0.99;37.75
77869;BME280;67231;59.144;37.934;2023-04-15T03:27:48;102127.56;;;-0.96;37.55
77869;BME280;67231;59.144;37.934;2023-04-15T03:30:18;102139.66;;;-0.94;37.46
77869;BME280;67231;59.144;37.934;2023-04-15T03:32:46;102135.25;;;-0.92;37.49
77869;BME280;67231;59.144;37.934;2023-04-15T03:35:13;102135.19;;;-0.87;37.45
77869;BME280;67231;59.144;37.934;2023-04-15T03:37:41;102140.28;;;-0.79;37.25
77869;BME280;67231;59.144;37.934;2023-04-15T03:40:11;102137.59;;;-0.75;37.17
77869;BME280;67231;59.144;37.934;2023-04-15T03:42:38;102142.66;;;-0.67;37.21
77869;BME280;67231;59.144;37.934;2023-04-15T03:45:07;102140.84;;;-0.62;37.09
77869;BME280;67231;59.144;37.934;2023-04-15T03:47:34;102147.69;;;-0.56;36.99
77869;BME280;67231;59.144;37.934;2023-04-15T03:50:02;102158.06;;;-0.53;36.70
77869;BME280;67231;59.144;37.934;2023-04-15T03:52:29;102144.97;;;-0.51;36.45
77869;BME280;67231;59.144;37.934;2023-04-15T03:55:00;102145.81;;;-0.48;36.65
77869;BME280;67231;59.144;37.934;2023-04-15T03:57:27;102141.38;;;-0.44;36.67
77869;BME280;67231;59.144;37.934;2023-04-15T03:59:55;102150.78;;;-0.35;36.28
77869;BME280;67231;59.144;37.934;2023-04-15T04:02:22;102148.94;;;-0.29;36.72
77869;BME280;67231;59.144;37.934;2023-04-15T04:04:50;102152.34;;;-0.25;36.22
77869;BME280;67231;59.144;37.934;2023-04-15T04:07:17;102152.28;;;-0.22;36.57
77869;BME280;67231;59.144;37.934;2023-04-15T04:09:45;102152.91;;;-0.11;36.28
77869;BME280;67231;59.144;37.934;2023-04-15T04:12:13;102160.63;;;-0.05;36.02
77869;BME280;67231;59.144;37.934;2023-04-15T04:14:40;102160.47;;;0.02;36.00
77869;BME280;67231;59.144;37.934;2023-04-15T04:17:07;102162.19;;;0.04;35.85
77869;BME280;67231;59.144;37.934;2023-04-15T04:19:35;102155.94;;;0.13;35.79
77869;BME280;67231;59.144;37.934;2023-04-15T04:22:02;102164.41;;;0.23;35.30
77869;BME280;67231;59.144;37.934;2023-04-15T04:24:30;102165.09;;;0.32;35.14
77869;BME280;67231;59.144;37.934;2023-04-15T04:26:57;102177.81;;;0.46;35.22
77869;BME280;67231;59.144;37.934;2023-04-15T04:29:25;102164.53;;;0.57;35.05
77869;BME280;67231;59.144;37.934;2023-04-15T04:31:53;102167.53;;;0.78;34.61
77869;BME280;67231;59.144;37.934;2023-04-15T04:34:20;102168.09;;;1.26;33.99
77869;BME280;67231;59.144;37.934;2023-04-15T04:36:47;102168.78;;;3.64;31.93
77869;BME280;67231;59.144;37.934;2023-04-15T04:39:15;102166.03;;;6.45;29.19
77869;BME280;67231;59.144;37.934;2023-04-15T04:41:43;102162.53;;;8.35;27.77
77869;BME280;67231;59.144;37.934;2023-04-15T04:44:10;102168.00;;;9.86;26.50
77869;BME280;67231;59.144;37.934;2023-04-15T04:46:38;102169.91;;;11.08;25.74
77869;BME280;67231;59.144;37.934;2023-04-15T04:49:06;102172.53;;;12.13;24.46
77869;BME280;67231;59.144;37.934;2023-04-15T04:51:34;102180.31;;;13.01;24.10
77869;BME280;67231;59.144;37.934;2023-04-15T04:54:02;102170.34;;;13.63;23.41
77869;BME280;67231;59.144;37.934;2023-04-15T04:56:30;102166.97;;;14.29;23.19
77869;BME280;67231;59.144;37.934;2023-04-15T04:58:57;102179.44;;;14.95;22.73
77869;BME280;67231;59.144;37.934;2023-04-15T05:01:25;102184.03;;;15.67;21.57
77869;BME280;67231;59.144;37.934;2023-04-15T05:03:55;102187.56;;;15.68;21.62
77869;BME280;67231;59.144;37.934;2023-04-15T05:06:22;102195.72;;;15.45;21.17
77869;BME280;67231;59.144;37.934;2023-04-15T05:08:49;102189.13;;;15.91;20.59
77869;BME280;67231;59.144;37.934;2023-04-15T05:11:17;102193.88;;;16.18;19.83
77869;BME280;67231;59.144;37.934;2023-04-15T05:13:44;102193.31;;;16.85;19.31
77869;BME280;67231;59.144;37.934;2023-04-15T05:16:12;102189.81;;;17.33;19.08
77869;BME280;67231;59.144;37.934;2023-04-15T05:18:39;102193.44;;;18.09;18.63
77869;BME280;67231;59.144;37.934;2023-04-15T05:21:19;102195.56;;;18.33;17.67
77869;BME280;67231;59.144;37.934;2023-04-15T05:24:03;102186.28;;;18.27;17.92
77869;BME280;67231;59.144;37.934;2023-04-15T05:27:16;102194.19;;;18.29;17.95
77869;BME280;67231;59.144;37.934;2023-04-15T05:29:50;102205.22;;;18.53;17.84
77869;BME280;67231;59.144;37.934;2023-04-15T05:32:34;102205.94;;;18.55;17.40
77869;BME280;67231;59.144;37.934;2023-04-15T05:35:07;102206.00;;;18.91;16.94
77869;BME280;67231;59.144;37.934;2023-04-15T05:37:44;102203.72;;;19.23;16.55
77869;BME280;67231;59.144;37.934;2023-04-15T05:40:31;102205.47;;;19.06;16.67
77869;BME280;67231;59.144;37.934;2023-04-15T05:42:58;102204.06;;;18.84;16.76
77869;BME280;67231;59.144;37.934;2023-04-15T05:45:29;102203.16;;;19.55;15.99
77869;BME280;67231;59.144;37.934;2023-04-15T05:47:57;102203.50;;;20.55;15.55
77869;BME280;67231;59.144;37.934;2023-04-15T05:50:24;102202.56;;;20.81;15.46
77869;BME280;67231;59.144;37.934;2023-04-15T05:52:52;102207.28;;;20.79;15.11
77869;BME280;67231;59.144;37.934;2023-04-15T05:55:23;102213.41;;;20.38;15.36
77869;BME280;67231;59.144;37.934;2023-04-15T05:57:51;102208.97;;;20.29;15.29
77869;BME280;67231;59.144;37.934;2023-04-15T06:00:18;102205.91;;;20.67;14.89
77869;BME280;67231;59.144;37.934;2023-04-15T06:02:46;102203.88;;;20.69;14.81
77869;BME280;67231;59.144;37.934;2023-04-15T06:05:14;102209.50;;;21.00;14.76
77869;BME280;67231;59.144;37.934;2023-04-15T06:07:41;102213.56;;;21.29;14.33
77869;BME280;67231;59.144;37.934;2023-04-15T06:10:10;102211.84;;;20.87;14.46
77869;BME280;67231;59.144;37.934;2023-04-15T06:12:37;102216.09;;;21.55;13.90
77869;BME280;67231;59.144;37.934;2023-04-15T06:15:05;102212.34;;;21.81;14.25
77869;BME280;67231;59.144;37.934;2023-04-15T06:17:33;102220.84;;;22.17;13.67
77869;BME280;67231;59.144;37.934;2023-04-15T06:20:01;102205.25;;;22.36;13.55
77869;BME280;67231;59.144;37.934;2023-04-15T06:22:28;102210.72;;;22.11;13.83
77869;BME280;67231;59.144;37.934;2023-04-15T06:24:56;102212.22;;;22.53;13.47
77869;BME280;67231;59.144;37.934;2023-04-15T06:27:23;102215.13;;;22.12;13.57
77869;BME280;67231;59.144;37.934;2023-04-15T06:29:51;102214.47;;;22.10;13.82
77869;BME280;67231;59.144;37.934;2023-04-15T06:32:18;102212.81;;;22.72;13.28
77869;BME280;67231;59.144;37.934;2023-04-15T06:34:46;102219.81;;;22.89;13.05
77869;BME280;67231;59.144;37.934;2023-04-15T06:37:14;102220.75;;;22.97;13.11
77869;BME280;67231;59.144;37.934;2023-04-15T06:39:42;102220.03;;;23.03;13.30
77869;BME280;67231;59.144;37.934;2023-04-15T06:42:11;102226.59;;;22.85;12.94
77869;BME280;67231;59.144;37.934;2023-04-15T06:44:38;102226.47;;;22.79;12.95
77869;BME280;67231;59.144;37.934;2023-04-15T06:47:06;102218.38;;;22.47;12.95
77869;BME280;67231;59.144;37.934;2023-04-15T06:49:34;102215.03;;;22.91;13.14
77869;BME280;67231;59.144;37.934;2023-04-15T06:52:01;102212.56;;;23.13;12.98
77869;BME280;67231;59.144;37.934;2023-04-15T06:54:31;102218.28;;;23.33;12.56
77869;BME280;67231;59.144;37.934;2023-04-15T06:56:58;102221.66;;;23.88;12.49
77869;BME280;67231;59.144;37.934;2023-04-15T06:59:26;102220.06;;;23.26;12.90
77869;BME280;67231;59.144;37.934;2023-04-15T07:01:54;102217.94;;;22.90;13.00
77869;BME280;67231;59.144;37.934;2023-04-15T07:04:21;102220.88;;;22.57;12.44
77869;BME280;67231;59.144;37.934;2023-04-15T07:06:49;102217.56;;;22.93;12.04
77869;BME280;67231;59.144;37.934;2023-04-15T07:09:17;102229.06;;;23.41;11.89
77869;BME280;67231;59.144;37.934;2023-04-15T07:11:44;102229.06;;;23.56;11.81
77869;BME280;67231;59.144;37.934;2023-04-15T07:14:12;102226.19;;;23.58;11.46
77869;BME280;67231;59.144;37.934;2023-04-15T07:16:39;102226.69;;;23.61;11.54
77869;BME280;67231;59.144;37.934;2023-04-15T07:19:07;102225.16;;;23.44;11.59
77869;BME280;67231;59.144;37.934;2023-04-15T07:21:34;102217.56;;;23.92;11.59
77869;BME280;67231;59.144;37.934;2023-04-15T07:24:02;102222.91;;;24.52;11.67
77869;BME280;67231;59.144;37.934;2023-04-15T07:26:30;102222.63;;;24.62;11.86
77869;BME280;67231;59.144;37.934;2023-04-15T07:28:57;102222.00;;;23.55;12.64
77869;BME280;67231;59.144;37.934;2023-04-15T07:31:25;102216.91;;;23.90;12.19
77869;BME280;67231;59.144;37.934;2023-04-15T07:33:53;102224.28;;;24.26;11.50
77869;BME280;67231;59.144;37.934;2023-04-15T07:36:21;102226.00;;;24.49;11.61
77869;BME280;67231;59.144;37.934;2023-04-15T07:38:48;102223.06;;;24.29;11.93
77869;BME280;67231;59.144;37.934;2023-04-15T07:41:16;102225.88;;;23.91;11.76
77869;BME280;67231;59.144;37.934;2023-04-15T07:43:43;102223.75;;;23.48;12.22
77869;BME280;67231;59.144;37.934;2023-04-15T07:46:11;102229.59;;;23.37;12.09
77869;BME280;67231;59.144;37.934;2023-04-15T07:48:39;102221.38;;;22.52;12.60
77869;BME280;67231;59.144;37.934;2023-04-15T07:51:07;102229.66;;;23.52;11.49
77869;BME280;67231;59.144;37.934;2023-04-15T07:53:34;102226.88;;;23.75;11.66
77869;BME280;67231;59.144;37.934;2023-04-15T07:56:02;102224.50;;;23.42;11.26
77869;BME280;67231;59.144;37.934;2023-04-15T07:58:30;102223.59;;;23.26;11.67
77869;BME280;67231;59.144;37.934;2023-04-15T08:00:57;102231.81;;;22.87;11.16
77869;BME280;67231;59.144;37.934;2023-04-15T08:03:25;102225.16;;;23.21;11.42
77869;BME280;67231;59.144;37.934;2023-04-15T08:05:53;102217.88;;;22.75;11.48
77869;BME280;67231;59.144;37.934;2023-04-15T08:08:21;102220.34;;;23.31;11.17
77869;BME280;67231;59.144;37.934;2023-04-15T08:10:48;102218.34;;;23.10;11.00
77869;BME280;67231;59.144;37.934;2023-04-15T08:13:16;102220.47;;;22.91;10.99
77869;BME280;67231;59.144;37.934;2023-04-15T08:15:44;102218.47;;;22.62;10.63
77869;BME280;67231;59.144;37.934;2023-04-15T08:18:11;102212.22;;;22.53;10.58
77869;BME280;67231;59.144;37.934;2023-04-15T08:20:39;102221.22;;;22.54;10.88
77869;BME280;67231;59.144;37.934;2023-04-15T08:23:07;102213.19;;;21.81;11.38
77869;BME280;67231;59.144;37.934;2023-04-15T08:25:35;102219.63;;;21.06;11.23
77869;BME280;67231;59.144;37.934;2023-04-15T08:28:03;102206.81;;;20.92;12.13
77869;BME280;67231;59.144;37.934;2023-04-15T08:30:33;102203.97;;;20.51;11.41
77869;BME280;67231;59.144;37.934;2023-04-15T08:33:01;102197.00;;;19.45;11.46
77869;BME280;67231;59.144;37.934;2023-04-15T08:35:28;102196.84;;;17.44;12.58
77869;BME280;67231;59.144;37.934;2023-04-15T08:37:56;102200.88;;;15.79;13.04
77869;BME280;67231;59.144;37.934;2023-04-15T08:40:26;102195.69;;;14.70;14.00
77869;BME280;67231;59.144;37.934;2023-04-15T08:43:03;102187.09;;;13.88;15.21
77869;BME280;67231;59.144;37.934;2023-04-15T08:45:32;102183.44;;;13.55;15.19
77869;BME280;67231;59.144;37.934;2023-04-15T08:48:00;102183.91;;;13.13;14.92
77869;BME280;67231;59.144;37.934;2023-04-15T08:50:31;102183.44;;;12.95;15.63
77869;BME280;67231;59.144;37.934;2023-04-15T08:52:59;102176.81;;;12.77;15.76
77869;BME280;67231;59.144;37.934;2023-04-15T08:55:35;102177.19;;;12.35;16.20
77869;BME280;67231;59.144;37.934;2023-04-15T08:58:03;102179.28;;;12.43;16.54
77869;BME280;67231;59.144;37.934;2023-04-15T09:00:32;102177.38;;;12.45;16.66
77869;BME280;67231;59.144;37.934;2023-04-15T09:03:00;102176.34;;;12.34;15.95
77869;BME280;67231;59.144;37.934;2023-04-15T09:05:31;102168.09;;;12.37;16.13
77869;BME280;67231;59.144;37.934;2023-04-15T09:08:03;102164.19;;;12.30;15.95
77869;BME280;67231;59.144;37.934;2023-04-15T09:10:31;102158.56;;;12.22;16.01
77869;BME280;67231;59.144;37.934;2023-04-15T09:13:05;102162.97;;;12.10;16.37
77869;BME280;67231;59.144;37.934;2023-04-15T09:15:37;102159.97;;;11.89;16.52
77869;BME280;67231;59.144;37.934;2023-04-15T09:18:06;102155.84;;;11.46;16.31
77869;BME280;67231;59.144;37.934;2023-04-15T09:20:41;102162.94;;;11.33;16.46
77869;BME280;67231;59.144;37.934;2023-04-15T09:23:14;102159.63;;;11.17;16.67
77869;BME280;67231;59.144;37.934;2023-04-15T09:25:41;102157.38;;;11.23;16.59
77869;BME280;67231;59.144;37.934;2023-04-15T09:28:09;102157.38;;;11.23;16.70
77869;BME280;67231;59.144;37.934;2023-04-15T09:30:37;102153.72;;;10.99;16.43
77869;BME280;67231;59.144;37.934;2023-04-15T09:33:06;102139.03;;;10.93;17.23
77869;BME280;67231;59.144;37.934;2023-04-15T09:35:35;102145.88;;;10.97;16.89
77869;BME280;67231;59.144;37.934;2023-04-15T09:38:08;102148.13;;;11.03;17.60
77869;BME280;67231;59.144;37.934;2023-04-15T09:40:40;102147.56;;;10.98;17.02
77869;BME280;67231;59.144;37.934;2023-04-15T09:43:09;102137.81;;;10.71;17.87
77869;BME280;67231;59.144;37.934;2023-04-15T09:45:46;102146.53;;;10.73;17.15
77869;BME280;67231;59.144;37.934;2023-04-15T09:50:44;102143.97;;;10.72;17.02
77869;BME280;67231;59.144;37.934;2023-04-15T09:53:15;102154.19;;;10.78;18.27
77869;BME280;67231;59.144;37.934;2023-04-15T09:55:56;102141.38;;;10.57;17.61
77869;BME280;67231;59.144;37.934;2023-04-15T10:00:56;102124.47;;;10.86;18.14
77869;BME280;67231;59.144;37.934;2023-04-15T10:03:26;102132.75;;;10.81;18.21
77869;BME280;67231;59.144;37.934;2023-04-15T10:05:55;102118.00;;;10.77;17.85
77869;BME280;67231;59.144;37.934;2023-04-15T10:08:25;102126.09;;;10.61;18.08
77869;BME280;67231;59.144;37.934;2023-04-15T10:10:54;102127.19;;;10.44;18.00
77869;BME280;67231;59.144;37.934;2023-04-15T10:13:23;102122.81;;;10.29;18.07
77869;BME280;67231;59.144;37.934;2023-04-15T10:16:00;102118.69;;;10.25;18.29
77869;BME280;67231;59.144;37.934;2023-04-15T10:18:33;102116.41;;;10.33;17.67
77869;BME280;67231;59.144;37.934;2023-04-15T10:21:02;102117.63;;;10.42;17.96
77869;BME280;67231;59.144;37.934;2023-04-15T10:23:32;102121.50;;;10.50;18.30
77869;BME280;67231;59.144;37.934;2023-04-15T10:26:00;102111.53;;;10.54;17.74
77869;BME280;67231;59.144;37.934;2023-04-15T10:28:29;102111.56;;;10.67;18.47
77869;BME280;67231;59.144;37.934;2023-04-15T10:30:57;102118.34;;;10.58;18.05
77869;BME280;67231;59.144;37.934;2023-04-15T10:33:26;102097.91;;;10.46;17.69
77869;BME280;67231;59.144;37.934;2023-04-15T10:35:55;102112.59;;;10.51;17.95
77869;BME280;67231;59.144;37.934;2023-04-15T10:38:38;102113.72;;;10.47;18.06
77869;BME280;67231;59.144;37.934;2023-04-15T10:41:18;102103.59;;;10.39;18.28
77869;BME280;67231;59.144;37.934;2023-04-15T10:43:54;102094.63;;;10.28;18.06
77869;BME280;67231;59.144;37.934;2023-04-15T10:46:23;102098.69;;;10.33;18.27
77869;BME280;67231;59.144;37.934;2023-04-15T10:48:53;102095.44;;;10.28;17.98
77869;BME280;67231;59.144;37.934;2023-04-15T10:51:29;102098.59;;;10.20;18.35
77869;BME280;67231;59.144;37.934;2023-04-15T10:53:58;102088.38;;;10.14;18.80
77869;BME280;67231;59.144;37.934;2023-04-15T10:56:29;102091.25;;;10.11;18.70
77869;BME280;67231;59.144;37.934;2023-04-15T10:58:58;102096.91;;;10.19;19.03
77869;BME280;67231;59.144;37.934;2023-04-15T11:02:03;102089.72;;;10.07;18.86
77869;BME280;67231;59.144;37.934;2023-04-15T11:07:40;102084.63;;;9.90;18.71
77869;BME280;67231;59.144;37.934;2023-04-15T11:12:51;102092.41;;;9.78;19.39
77869;BME280;67231;59.144;37.934;2023-04-15T11:15:28;102080.78;;;9.81;19.08
77869;BME280;67231;59.144;37.934;2023-04-15T11:20:53;102071.00;;;9.81;19.53
77869;BME280;67231;59.144;37.934;2023-04-15T11:23:41;102069.69;;;9.74;19.32
77869;BME280;67231;59.144;37.934;2023-04-15T11:26:13;102060.50;;;9.65;19.25
77869;BME280;67231;59.144;37.934;2023-04-15T11:28:43;102063.91;;;9.68;19.62
77869;BME280;67231;59.144;37.934;2023-04-15T11:31:13;102057.97;;;9.64;19.69
77869;BME280;67231;59.144;37.934;2023-04-15T11:33:58;102057.78;;;9.67;19.41
77869;BME280;67231;59.144;37.934;2023-04-15T11:36:28;102050.28;;;9.59;19.50
77869;BME280;67231;59.144;37.934;2023-04-15T11:38:57;102047.91;;;9.55;19.37
77869;BME280;67231;59.144;37.934;2023-04-15T11:41:25;102047.75;;;9.58;19.68
77869;BME280;67231;59.144;37.934;2023-04-15T11:43:53;102040.06;;;9.53;19.56
77869;BME280;67231;59.144;37.934;2023-04-15T11:46:27;102043.69;;;9.52;19.86
77869;BME280;67231;59.144;37.934;2023-04-15T11:48:54;102039.88;;;9.56;20.11
77869;BME280;67231;59.144;37.934;2023-04-15T11:51:22;102036.84;;;9.62;19.83
77869;BME280;67231;59.144;37.934;2023-04-15T11:53:50;102026.91;;;9.52;19.74
77869;BME280;67231;59.144;37.934;2023-04-15T11:56:21;102027.09;;;9.48;20.00
77869;BME280;67231;59.144;37.934;2023-04-15T11:58:51;102028.44;;;9.56;20.14
77869;BME280;67231;59.144;37.934;2023-04-15T12:01:18;102020.84;;;9.64;20.03
77869;BME280;67231;59.144;37.934;2023-04-15T12:03:46;102011.09;;;9.64;20.42
77869;BME280;67231;59.144;37.934;2023-04-15T12:06:22;102013.00;;;9.62;20.26
77869;BME280;67231;59.144;37.934;2023-04-15T12:13:54;102016.56;;;9.76;20.03
77869;BME280;67231;59.144;37.934;2023-04-15T12:16:23;102017.63;;;9.73;20.08
77869;BME280;67231;59.144;37.934;2023-04-15T12:18:51;102011.16;;;9.77;19.97
77869;BME280;67231;59.144;37.934;2023-04-15T12:21:20;102008.94;;;9.71;20.66
77869;BME280;67231;59.144;37.934;2023-04-15T12:23:50;102011.09;;;9.64;20.02
77869;BME280;67231;59.144;37.934;2023-04-15T12:26:28;102000.88;;;9.73;20.00
77869;BME280;67231;59.144;37.934;2023-04-15T12:29:00;102002.19;;;9.80;20.24
77869;BME280;67231;59.144;37.934;2023-04-15T12:31:26;102000.72;;;9.89;20.46
77869;BME280;67231;59.144;37.934;2023-04-15T12:33:57;102000.44;;;9.93;20.19
77869;BME280;67231;59.144;37.934;2023-04-15T12:36:24;101995.22;;;9.92;20.20
77869;BME280;67231;59.144;37.934;2023-04-15T12:38:50;101988.25;;;9.91;20.61
77869;BME280;67231;59.144;37.934;2023-04-15T12:41:17;101991.53;;;9.94;19.90
77869;BME280;67231;59.144;37.934;2023-04-15T12:43:47;101990.59;;;9.95;20.27
77869;BME280;67231;59.144;37.934;2023-04-15T12:46:14;101991.44;;;9.96;20.09
77869;BME280;67231;59.144;37.934;2023-04-15T12:48:41;101982.16;;;9.89;19.84
77869;BME280;67231;59.144;37.934;2023-04-15T12:54:43;101995.06;;;9.80;19.76
77869;BME280;67231;59.144;37.934;2023-04-15T12:57:22;101974.81;;;9.79;20.32
77869;BME280;67231;59.144;37.934;2023-04-15T12:59:48;101979.72;;;9.86;20.32
77869;BME280;67231;59.144;37.934;2023-04-15T13:02:14;101972.44;;;9.89;20.44
77869;BME280;67231;59.144;37.934;2023-04-15T13:04:40;101976.47;;;9.95;20.31
77869;BME280;67231;59.144;37.934;2023-04-15T13:07:07;101968.31;;;9.98;19.96
77869;BME280;67231;59.144;37.934;2023-04-15T13:09:34;101974.59;;;9.97;20.10
77869;BME280;67231;59.144;37.934;2023-04-15T13:12:00;101972.13;;;9.94;19.84
77869;BME280;67231;59.144;37.934;2023-04-15T13:14:26;101970.31;;;9.94;20.30